sensor_id;sensor_type;location;lat;lon;timestamp;temperature;humidity
29241;DHT22;16268;49.880;8.648;2022-10-16T00:00:36;16.30;99.90
29241;DHT22;16268;49.880;8.648;2022-10-16T00:03:02;16.30;99.90
29241;DHT22;16268;49.880;8.648;2022-10-16T00:05:29;16.30;99.90
29241;DHT22;16268;49.880;8.648;2022-10-16T00:07:55;16.30;99.90
29241;DHT22;16268;49.880;8.648;2022-10-16T00:10:21;16.30;99.90
29241;DHT22;16268;49.880;8.648;2022-10-16T00:12:46;16.30;99.90
29241;DHT22;16268;49.880;8.648;2022-10-16T00:15:13;16.30;99.90
29241;DHT22;16268;49.880;8.648;2022-10-16T00:17:38;16.30;99.90
29241;DHT22;16268;49.880;8.648;2022-10-16T00:20:04;16.30;99.90
29241;DHT22;16268;49.880;8.648;2022-10-16T00:22:30;16.30;99.90
29241;DHT22;16268;49.880;8.648;2022-10-16T00:24:56;16.20;99.90
29241;DHT22;16268;49.880;8.648;2022-10-16T00:27:21;16.20;99.90
29241;DHT22;16268;49.880;8.648;2022-10-16T00:29:51;16.20;99.90
29241;DHT22;16268;49.880;8.648;2022-10-16T00:32:17;16.20;99.90
29241;DHT22;16268;49.880;8.648;2022-10-16T00:34:43;16.20;99.90
29241;DHT22;16268;49.880;8.648;2022-10-16T00:37:08;16.20;99.90
29241;DHT22;16268;49.880;8.648;2022-10-16T00:39:34;16.20;99.90
29241;DHT22;16268;49.880;8.648;2022-10-16T00:41:59;16.20;99.90
29241;DHT22;16268;49.880;8.648;2022-10-16T00:44:46;16.10;99.90
29241;DHT22;16268;49.880;8.648;2022-10-16T00:47:30;16.20;99.90
29241;DHT22;16268;49.880;8.648;2022-10-16T00:50:09;16.10;99.90
29241;DHT22;16268;49.880;8.648;2022-10-16T00:52:37;16.10;99.90
29241;DHT22;16268;49.880;8.648;2022-10-16T00:55:05;16.10;99.90
29241;DHT22;16268;49.880;8.648;2022-10-16T00:57:31;16.10;99.90
29241;DHT22;16268;49.880;8.648;2022-10-16T00:59:57;16.10;99.90
29241;DHT22;16268;49.880;8.648;2022-10-16T01:02:24;16.00;99.90
29241;DHT22;16268;49.880;8.648;2022-10-16T01:04:51;16.00;99.90
29241;DHT22;16268;49.880;8.648;2022-10-16T01:07:30;16.00;99.90
29241;DHT22;16268;49.880;8.648;2022-10-16T01:15:42;15.90;99.90
29241;DHT22;16268;49.880;8.648;2022-10-16T01:21:05;15.90;99.90
29241;DHT22;16268;49.880;8.648;2022-10-16T01:28:56;16.00;99.90
29241;DHT22;16268;49.880;8.648;2022-10-16T01:31:26;16.00;99.90
29241;DHT22;16268;49.880;8.648;2022-10-16T01:33:56;16.00;99.90
29241;DHT22;16268;49.880;8.648;2022-10-16T01:36:40;16.00;99.90
29241;DHT22;16268;49.880;8.648;2022-10-16T01:39:08;16.00;99.90
29241;DHT22;16268;49.880;8.648;2022-10-16T01:41:44;16.10;99.90
29241;DHT22;16268;49.880;8.648;2022-10-16T01:44:22;16.00;99.90
29241;DHT22;16268;49.880;8.648;2022-10-16T01:46:52;16.00;99.90
29241;DHT22;16268;49.880;8.648;2022-10-16T01:49:19;16.00;99.90
29241;DHT22;16268;49.880;8.648;2022-10-16T01:51:48;16.10;99.90
29241;DHT22;16268;49.880;8.648;2022-10-16T01:54:15;16.00;99.90
29241;DHT22;16268;49.880;8.648;2022-10-16T01:56:42;16.00;99.90
29241;DHT22;16268;49.880;8.648;2022-10-16T01:59:14;16.10;99.90
29241;DHT22;16268;49.880;8.648;2022-10-16T02:01:44;16.10;99.90
29241;DHT22;16268;49.880;8.648;2022-10-16T02:06:43;16.10;99.90
29241;DHT22;16268;49.880;8.648;2022-10-16T02:09:09;16.10;99.90
29241;DHT22;16268;49.880;8.648;2022-10-16T02:11:34;16.20;99.90
29241;DHT22;16268;49.880;8.648;2022-10-16T02:14:05;16.20;99.90
29241;DHT22;16268;49.880;8.648;2022-10-16T02:16:43;16.20;99.90
29241;DHT22;16268;49.880;8.648;2022-10-16T02:19:09;16.20;99.90
29241;DHT22;16268;49.880;8.648;2022-10-16T02:21:43;16.20;99.90
29241;DHT22;16268;49.880;8.648;2022-10-16T02:26:49;16.20;99.90
29241;DHT22;16268;49.880;8.648;2022-10-16T02:29:19;16.20;99.90
29241;DHT22;16268;49.880;8.648;2022-10-16T02:31:49;16.20;99.90
29241;DHT22;16268;49.880;8.648;2022-10-16T02:34:16;16.20;99.90
29241;DHT22;16268;49.880;8.648;2022-10-16T02:36:42;16.20;99.90
29241;DHT22;16268;49.880;8.648;2022-10-16T02:39:09;16.30;99.90
29241;DHT22;16268;49.880;8.648;2022-10-16T02:41:36;16.30;99.90
29241;DHT22;16268;49.880;8.648;2022-10-16T02:44:01;16.30;99.90
29241;DHT22;16268;49.880;8.648;2022-10-16T02:46:27;16.30;99.90
29241;DHT22;16268;49.880;8.648;2022-10-16T02:48:52;16.30;99.90
29241;DHT22;16268;49.880;8.648;2022-10-16T02:51:18;16.30;99.90
29241;DHT22;16268;49.880;8.648;2022-10-16T02:53:43;16.30;99.90
29241;DHT22;16268;49.880;8.648;2022-10-16T02:56:09;16.30;99.90
29241;DHT22;16268;49.880;8.648;2022-10-16T02:58:35;16.30;99.90
29241;DHT22;16268;49.880;8.648;2022-10-16T03:01:00;16.30;99.90
29241;DHT22;16268;49.880;8.648;2022-10-16T03:03:26;16.30;99.90
29241;DHT22;16268;49.880;8.648;2022-10-16T03:05:51;16.40;99.90
29241;DHT22;16268;49.880;8.648;2022-10-16T03:08:17;16.40;99.90
29241;DHT22;16268;49.880;8.648;2022-10-16T03:10:48;16.40;99.90
29241;DHT22;16268;49.880;8.648;2022-10-16T03:13:14;16.40;99.90
29241;DHT22;16268;49.880;8.648;2022-10-16T03:15:39;16.40;99.90
29241;DHT22;16268;49.880;8.648;2022-10-16T03:18:05;16.40;99.90
29241;DHT22;16268;49.880;8.648;2022-10-16T03:20:31;16.40;99.90
29241;DHT22;16268;49.880;8.648;2022-10-16T03:22:56;16.50;99.90
29241;DHT22;16268;49.880;8.648;2022-10-16T03:25:22;16.40;99.90
29241;DHT22;16268;49.880;8.648;2022-10-16T03:27:47;16.40;99.90
29241;DHT22;16268;49.880;8.648;2022-10-16T03:30:13;16.40;99.90
29241;DHT22;16268;49.880;8.648;2022-10-16T03:32:41;16.40;99.90
29241;DHT22;16268;49.880;8.648;2022-10-16T03:35:07;16.40;99.90
29241;DHT22;16268;49.880;8.648;2022-10-16T03:37:32;16.40;99.90
29241;DHT22;16268;49.880;8.648;2022-10-16T03:39:58;16.40;99.90
29241;DHT22;16268;49.880;8.648;2022-10-16T03:42:24;16.40;99.90
29241;DHT22;16268;49.880;8.648;2022-10-16T03:44:50;16.40;99.90
29241;DHT22;16268;49.880;8.648;2022-10-16T03:47:15;16.40;99.90
29241;DHT22;16268;49.880;8.648;2022-10-16T03:49:45;16.40;99.90
29241;DHT22;16268;49.880;8.648;2022-10-16T03:52:11;16.40;99.90
29241;DHT22;16268;49.880;8.648;2022-10-16T03:54:36;16.40;99.90
29241;DHT22;16268;49.880;8.648;2022-10-16T03:57:02;16.40;99.90
29241;DHT22;16268;49.880;8.648;2022-10-16T03:59:27;16.50;99.90
29241;DHT22;16268;49.880;8.648;2022-10-16T04:01:53;16.50;99.90
29241;DHT22;16268;49.880;8.648;2022-10-16T04:04:18;16.50;99.90
29241;DHT22;16268;49.880;8.648;2022-10-16T04:06:44;16.50;99.90
29241;DHT22;16268;49.880;8.648;2022-10-16T04:09:09;16.50;99.90
29241;DHT22;16268;49.880;8.648;2022-10-16T04:11:35;16.50;99.90
29241;DHT22;16268;49.880;8.648;2022-10-16T04:14:01;16.40;99.90
29241;DHT22;16268;49.880;8.648;2022-10-16T04:16:26;16.40;99.90
29241;DHT22;16268;49.880;8.648;2022-10-16T04:18:52;16.40;99.90
29241;DHT22;16268;49.880;8.648;2022-10-16T04:21:17;16.40;99.90
29241;DHT22;16268;49.880;8.648;2022-10-16T04:23:43;16.40;99.90
29241;DHT22;16268;49.880;8.648;2022-10-16T04:26:08;16.40;99.90
29241;DHT22;16268;49.880;8.648;2022-10-16T04:28:35;16.40;99.90
29241;DHT22;16268;49.880;8.648;2022-10-16T04:31:04;16.40;99.90
29241;DHT22;16268;49.880;8.648;2022-10-16T04:33:29;16.40;99.90
29241;DHT22;16268;49.880;8.648;2022-10-16T04:35:59;16.40;99.90
29241;DHT22;16268;49.880;8.648;2022-10-16T04:38:25;16.30;99.90
29241;DHT22;16268;49.880;8.648;2022-10-16T04:40:51;16.30;99.90
29241;DHT22;16268;49.880;8.648;2022-10-16T04:43:17;16.30;99.90
29241;DHT22;16268;49.880;8.648;2022-10-16T04:45:43;16.30;99.90
29241;DHT22;16268;49.880;8.648;2022-10-16T04:48:09;16.20;99.90
29241;DHT22;16268;49.880;8.648;2022-10-16T04:50:34;16.20;99.90
29241;DHT22;16268;49.880;8.648;2022-10-16T04:53:00;16.20;99.90
29241;DHT22;16268;49.880;8.648;2022-10-16T04:55:25;16.20;99.90
29241;DHT22;16268;49.880;8.648;2022-10-16T04:57:51;16.20;99.90
29241;DHT22;16268;49.880;8.648;2022-10-16T05:00:16;16.20;99.90
29241;DHT22;16268;49.880;8.648;2022-10-16T05:02:42;16.20;99.90
29241;DHT22;16268;49.880;8.648;2022-10-16T05:05:08;16.30;99.90
29241;DHT22;16268;49.880;8.648;2022-10-16T05:07:33;16.30;99.90
29241;DHT22;16268;49.880;8.648;2022-10-16T05:09:59;16.20;99.90
29241;DHT22;16268;49.880;8.648;2022-10-16T05:12:25;16.20;99.90
29241;DHT22;16268;49.880;8.648;2022-10-16T05:14:50;16.30;99.90
29241;DHT22;16268;49.880;8.648;2022-10-16T05:17:16;16.20;99.90
29241;DHT22;16268;49.880;8.648;2022-10-16T05:19:42;16.20;99.90
29241;DHT22;16268;49.880;8.648;2022-10-16T05:22:07;16.20;99.90
29241;DHT22;16268;49.880;8.648;2022-10-16T05:24:33;16.20;99.90
29241;DHT22;16268;49.880;8.648;2022-10-16T05:26:58;16.20;99.90
29241;DHT22;16268;49.880;8.648;2022-10-16T05:29:24;16.20;99.90
29241;DHT22;16268;49.880;8.648;2022-10-16T05:31:51;16.20;99.90
29241;DHT22;16268;49.880;8.648;2022-10-16T05:34:17;16.10;99.90
29241;DHT22;16268;49.880;8.648;2022-10-16T05:36:42;16.10;99.90
29241;DHT22;16268;49.880;8.648;2022-10-16T05:39:10;16.00;99.90
29241;DHT22;16268;49.880;8.648;2022-10-16T05:41:36;16.00;99.90
29241;DHT22;16268;49.880;8.648;2022-10-16T05:44:05;16.00;99.90
29241;DHT22;16268;49.880;8.648;2022-10-16T05:46:31;15.90;99.90
29241;DHT22;16268;49.880;8.648;2022-10-16T05:48:57;16.00;99.90
29241;DHT22;16268;49.880;8.648;2022-10-16T05:51:23;15.90;99.90
29241;DHT22;16268;49.880;8.648;2022-10-16T05:53:48;16.00;99.90
29241;DHT22;16268;49.880;8.648;2022-10-16T05:56:14;15.90;99.90
29241;DHT22;16268;49.880;8.648;2022-10-16T05:58:40;16.00;99.90
29241;DHT22;16268;49.880;8.648;2022-10-16T06:01:09;16.00;99.90
29241;DHT22;16268;49.880;8.648;2022-10-16T06:03:35;16.00;99.90
29241;DHT22;16268;49.880;8.648;2022-10-16T06:06:08;16.00;99.90
29241;DHT22;16268;49.880;8.648;2022-10-16T06:08:33;16.00;99.90
29241;DHT22;16268;49.880;8.648;2022-10-16T06:11:03;16.10;99.90
29241;DHT22;16268;49.880;8.648;2022-10-16T06:13:29;16.10;99.90
29241;DHT22;16268;49.880;8.648;2022-10-16T06:15:58;16.10;99.90
29241;DHT22;16268;49.880;8.648;2022-10-16T06:18:24;16.10;99.90
29241;DHT22;16268;49.880;8.648;2022-10-16T06:20:50;16.10;99.90
29241;DHT22;16268;49.880;8.648;2022-10-16T06:23:15;16.10;99.90
29241;DHT22;16268;49.880;8.648;2022-10-16T06:25:41;16.10;99.90
29241;DHT22;16268;49.880;8.648;2022-10-16T06:28:06;16.20;99.90
29241;DHT22;16268;49.880;8.648;2022-10-16T06:30:32;16.20;99.90
29241;DHT22;16268;49.880;8.648;2022-10-16T06:32:57;16.20;99.90
29241;DHT22;16268;49.880;8.648;2022-10-16T06:35:23;16.30;99.90
29241;DHT22;16268;49.880;8.648;2022-10-16T06:37:49;16.20;99.90
29241;DHT22;16268;49.880;8.648;2022-10-16T06:40:14;16.30;99.90
29241;DHT22;16268;49.880;8.648;2022-10-16T06:42:41;16.40;99.90
29241;DHT22;16268;49.880;8.648;2022-10-16T06:45:07;16.30;99.90
29241;DHT22;16268;49.880;8.648;2022-10-16T06:47:32;16.30;99.90
29241;DHT22;16268;49.880;8.648;2022-10-16T06:49:58;16.40;99.90
29241;DHT22;16268;49.880;8.648;2022-10-16T06:52:24;16.40;99.90
29241;DHT22;16268;49.880;8.648;2022-10-16T06:54:50;16.40;99.90
29241;DHT22;16268;49.880;8.648;2022-10-16T06:57:15;16.50;99.90
29241;DHT22;16268;49.880;8.648;2022-10-16T06:59:41;16.50;99.90
29241;DHT22;16268;49.880;8.648;2022-10-16T07:02:08;16.60;99.90
29241;DHT22;16268;49.880;8.648;2022-10-16T07:04:36;16.70;99.90
29241;DHT22;16268;49.880;8.648;2022-10-16T07:07:01;16.70;99.90
29241;DHT22;16268;49.880;8.648;2022-10-16T07:09:27;16.80;99.90
29241;DHT22;16268;49.880;8.648;2022-10-16T07:11:53;16.90;99.90
29241;DHT22;16268;49.880;8.648;2022-10-16T07:14:20;16.90;99.90
29241;DHT22;16268;49.880;8.648;2022-10-16T07:16:47;16.90;99.90
29241;DHT22;16268;49.880;8.648;2022-10-16T07:19:14;17.00;99.90
29241;DHT22;16268;49.880;8.648;2022-10-16T07:21:41;17.10;99.90
29241;DHT22;16268;49.880;8.648;2022-10-16T07:24:11;17.20;99.90
29241;DHT22;16268;49.880;8.648;2022-10-16T07:26:38;17.30;99.90
29241;DHT22;16268;49.880;8.648;2022-10-16T07:29:06;17.30;99.90
29241;DHT22;16268;49.880;8.648;2022-10-16T07:31:32;17.30;99.90
29241;DHT22;16268;49.880;8.648;2022-10-16T07:33:59;17.30;99.90
29241;DHT22;16268;49.880;8.648;2022-10-16T07:36:25;17.30;99.90
29241;DHT22;16268;49.880;8.648;2022-10-16T07:38:51;17.30;99.90
29241;DHT22;16268;49.880;8.648;2022-10-16T07:41:18;17.40;99.90
29241;DHT22;16268;49.880;8.648;2022-10-16T07:43:52;17.40;99.90
29241;DHT22;16268;49.880;8.648;2022-10-16T07:46:19;17.40;99.90
29241;DHT22;16268;49.880;8.648;2022-10-16T07:48:45;17.50;99.90
29241;DHT22;16268;49.880;8.648;2022-10-16T07:51:17;17.50;99.90
29241;DHT22;16268;49.880;8.648;2022-10-16T07:53:43;17.40;99.90
29241;DHT22;16268;49.880;8.648;2022-10-16T07:56:09;17.50;99.90
29241;DHT22;16268;49.880;8.648;2022-10-16T07:58:35;17.60;99.90
29241;DHT22;16268;49.880;8.648;2022-10-16T08:01:11;17.50;99.90
29241;DHT22;16268;49.880;8.648;2022-10-16T08:03:38;17.50;99.90
29241;DHT22;16268;49.880;8.648;2022-10-16T08:06:04;17.50;99.90
29241;DHT22;16268;49.880;8.648;2022-10-16T08:08:30;17.50;99.90
29241;DHT22;16268;49.880;8.648;2022-10-16T08:10:56;17.60;99.90
29241;DHT22;16268;49.880;8.648;2022-10-16T08:13:22;17.60;99.90
29241;DHT22;16268;49.880;8.648;2022-10-16T08:15:47;17.60;99.90
29241;DHT22;16268;49.880;8.648;2022-10-16T08:18:14;17.60;99.90
29241;DHT22;16268;49.880;8.648;2022-10-16T08:20:41;17.60;99.90
29241;DHT22;16268;49.880;8.648;2022-10-16T08:23:09;17.50;99.90
29241;DHT22;16268;49.880;8.648;2022-10-16T08:25:36;17.40;99.90
29241;DHT22;16268;49.880;8.648;2022-10-16T08:28:09;17.50;99.90
29241;DHT22;16268;49.880;8.648;2022-10-16T08:30:36;17.50;99.90
29241;DHT22;16268;49.880;8.648;2022-10-16T08:33:01;17.50;99.90
29241;DHT22;16268;49.880;8.648;2022-10-16T08:35:28;17.50;99.90
29241;DHT22;16268;49.880;8.648;2022-10-16T08:37:54;17.50;99.90
29241;DHT22;16268;49.880;8.648;2022-10-16T08:40:24;17.50;99.90
29241;DHT22;16268;49.880;8.648;2022-10-16T08:48:49;17.30;99.90
29241;DHT22;16268;49.880;8.648;2022-10-16T08:51:33;17.20;99.90
29241;DHT22;16268;49.880;8.648;2022-10-16T08:54:05;17.10;99.90
29241;DHT22;16268;49.880;8.648;2022-10-16T08:56:31;17.10;99.90
29241;DHT22;16268;49.880;8.648;2022-10-16T08:58:59;17.00;99.90
29241;DHT22;16268;49.880;8.648;2022-10-16T09:01:37;17.00;99.90
29241;DHT22;16268;49.880;8.648;2022-10-16T09:23:12;17.10;99.90
29241;DHT22;16268;49.880;8.648;2022-10-16T09:25:39;17.20;99.90
29241;DHT22;16268;49.880;8.648;2022-10-16T09:28:05;17.40;99.90
29241;DHT22;16268;49.880;8.648;2022-10-16T09:30:32;17.60;99.90
29241;DHT22;16268;49.880;8.648;2022-10-16T09:32:58;17.80;99.90
29241;DHT22;16268;49.880;8.648;2022-10-16T09:35:33;17.80;99.90
29241;DHT22;16268;49.880;8.648;2022-10-16T09:38:00;17.90;99.90
29241;DHT22;16268;49.880;8.648;2022-10-16T09:40:40;18.00;99.90
29241;DHT22;16268;49.880;8.648;2022-10-16T09:43:32;18.20;99.90
29241;DHT22;16268;49.880;8.648;2022-10-16T09:46:05;18.30;99.90
29241;DHT22;16268;49.880;8.648;2022-10-16T09:48:37;18.50;99.90
29241;DHT22;16268;49.880;8.648;2022-10-16T09:51:05;18.70;99.90
29241;DHT22;16268;49.880;8.648;2022-10-16T09:53:42;19.00;99.90
29241;DHT22;16268;49.880;8.648;2022-10-16T09:56:11;19.30;99.90
29241;DHT22;16268;49.880;8.648;2022-10-16T09:58:42;19.60;99.90
29241;DHT22;16268;49.880;8.648;2022-10-16T10:01:14;20.20;99.90
29241;DHT22;16268;49.880;8.648;2022-10-16T10:03:41;20.60;99.90
29241;DHT22;16268;49.880;8.648;2022-10-16T10:06:30;20.60;99.90
29241;DHT22;16268;49.880;8.648;2022-10-16T10:09:23;20.70;99.90
29241;DHT22;16268;49.880;8.648;2022-10-16T10:11:52;20.70;99.90
29241;DHT22;16268;49.880;8.648;2022-10-16T10:14:34;21.00;99.90
29241;DHT22;16268;49.880;8.648;2022-10-16T10:33:24;21.60;99.90
29241;DHT22;16268;49.880;8.648;2022-10-16T10:36:22;21.90;99.90
29241;DHT22;16268;49.880;8.648;2022-10-16T10:38:53;21.80;99.90
29241;DHT22;16268;49.880;8.648;2022-10-16T10:44:46;21.80;99.90
29241;DHT22;16268;49.880;8.648;2022-10-16T10:55:39;21.70;99.90
29241;DHT22;16268;49.880;8.648;2022-10-16T11:23:56;21.20;99.90
29241;DHT22;16268;49.880;8.648;2022-10-16T11:26:29;21.40;99.90
29241;DHT22;16268;49.880;8.648;2022-10-16T11:28:56;21.50;99.90
29241;DHT22;16268;49.880;8.648;2022-10-16T11:31:38;21.60;99.90
29241;DHT22;16268;49.880;8.648;2022-10-16T11:34:20;21.80;99.90
29241;DHT22;16268;49.880;8.648;2022-10-16T11:36:51;22.10;99.90
29241;DHT22;16268;49.880;8.648;2022-10-16T11:39:27;22.20;99.90
29241;DHT22;16268;49.880;8.648;2022-10-16T11:42:10;22.20;99.90
29241;DHT22;16268;49.880;8.648;2022-10-16T11:45:03;22.30;99.90
29241;DHT22;16268;49.880;8.648;2022-10-16T11:47:34;22.20;99.90
29241;DHT22;16268;49.880;8.648;2022-10-16T11:50:13;22.10;99.90
29241;DHT22;16268;49.880;8.648;2022-10-16T11:52:44;21.90;99.90
29241;DHT22;16268;49.880;8.648;2022-10-16T11:55:52;21.90;99.90
29241;DHT22;16268;49.880;8.648;2022-10-16T12:03:39;22.40;99.90
29241;DHT22;16268;49.880;8.648;2022-10-16T12:09:21;22.50;99.90
29241;DHT22;16268;49.880;8.648;2022-10-16T12:11:48;22.60;99.90
29241;DHT22;16268;49.880;8.648;2022-10-16T12:16:51;22.40;99.90
29241;DHT22;16268;49.880;8.648;2022-10-16T12:19:19;22.20;99.90
29241;DHT22;16268;49.880;8.648;2022-10-16T12:21:45;22.00;99.90
29241;DHT22;16268;49.880;8.648;2022-10-16T12:24:43;21.80;99.90
29241;DHT22;16268;49.880;8.648;2022-10-16T12:29:59;21.60;99.90
29241;DHT22;16268;49.880;8.648;2022-10-16T12:32:36;21.70;99.90
29241;DHT22;16268;49.880;8.648;2022-10-16T12:35:04;21.60;99.90
29241;DHT22;16268;49.880;8.648;2022-10-16T13:41:28;21.60;99.90
29241;DHT22;16268;49.880;8.648;2022-10-16T13:43:54;21.70;99.90
29241;DHT22;16268;49.880;8.648;2022-10-16T13:46:24;21.70;99.90
29241;DHT22;16268;49.880;8.648;2022-10-16T13:49:01;21.70;99.90
29241;DHT22;16268;49.880;8.648;2022-10-16T13:51:27;21.60;99.90
29241;DHT22;16268;49.880;8.648;2022-10-16T13:53:55;21.50;99.90
29241;DHT22;16268;49.880;8.648;2022-10-16T13:56:22;21.40;99.90
29241;DHT22;16268;49.880;8.648;2022-10-16T13:59:06;21.30;99.90
29241;DHT22;16268;49.880;8.648;2022-10-16T14:01:46;21.20;99.90
29241;DHT22;16268;49.880;8.648;2022-10-16T14:04:13;21.20;99.90
29241;DHT22;16268;49.880;8.648;2022-10-16T14:06:42;21.10;99.90
29241;DHT22;16268;49.880;8.648;2022-10-16T14:09:08;21.10;99.90
29241;DHT22;16268;49.880;8.648;2022-10-16T14:11:46;21.00;99.90
29241;DHT22;16268;49.880;8.648;2022-10-16T14:14:14;20.90;99.90
29241;DHT22;16268;49.880;8.648;2022-10-16T14:16:42;20.90;99.90
29241;DHT22;16268;49.880;8.648;2022-10-16T14:19:28;20.80;99.90
29241;DHT22;16268;49.880;8.648;2022-10-16T14:21:54;20.80;99.90
29241;DHT22;16268;49.880;8.648;2022-10-16T14:26:56;20.80;99.90
29241;DHT22;16268;49.880;8.648;2022-10-16T14:29:23;20.60;99.90
29241;DHT22;16268;49.880;8.648;2022-10-16T14:32:00;20.50;99.90
29241;DHT22;16268;49.880;8.648;2022-10-16T14:36:54;20.30;99.90
29241;DHT22;16268;49.880;8.648;2022-10-16T14:39:22;20.30;99.90
29241;DHT22;16268;49.880;8.648;2022-10-16T14:41:50;20.40;99.90
29241;DHT22;16268;49.880;8.648;2022-10-16T14:44:18;20.40;99.90
29241;DHT22;16268;49.880;8.648;2022-10-16T14:46:44;20.40;99.90
29241;DHT22;16268;49.880;8.648;2022-10-16T14:51:37;20.50;99.90
29241;DHT22;16268;49.880;8.648;2022-10-16T14:54:03;20.40;99.90
29241;DHT22;16268;49.880;8.648;2022-10-16T14:56:46;20.40;99.90
29241;DHT22;16268;49.880;8.648;2022-10-16T14:59:19;20.20;99.90
29241;DHT22;16268;49.880;8.648;2022-10-16T15:01:46;20.20;99.90
29241;DHT22;16268;49.880;8.648;2022-10-16T15:04:12;20.10;99.90
29241;DHT22;16268;49.880;8.648;2022-10-16T15:06:38;20.00;99.90
29241;DHT22;16268;49.880;8.648;2022-10-16T15:09:04;20.00;99.90
29241;DHT22;16268;49.880;8.648;2022-10-16T15:11:31;20.00;99.90
29241;DHT22;16268;49.880;8.648;2022-10-16T15:30:34;20.40;99.90
29241;DHT22;16268;49.880;8.648;2022-10-16T15:33:01;20.40;99.90
29241;DHT22;16268;49.880;8.648;2022-10-16T15:35:27;20.40;99.90
29241;DHT22;16268;49.880;8.648;2022-10-16T15:37:53;20.40;99.90
29241;DHT22;16268;49.880;8.648;2022-10-16T15:40:20;20.40;99.90
29241;DHT22;16268;49.880;8.648;2022-10-16T15:42:45;20.40;99.90
29241;DHT22;16268;49.880;8.648;2022-10-16T15:45:12;20.50;99.90
29241;DHT22;16268;49.880;8.648;2022-10-16T15:47:38;20.40;99.90
29241;DHT22;16268;49.880;8.648;2022-10-16T15:50:05;20.30;99.90
29241;DHT22;16268;49.880;8.648;2022-10-16T15:52:30;20.20;99.90
29241;DHT22;16268;49.880;8.648;2022-10-16T15:54:57;20.00;99.90
29241;DHT22;16268;49.880;8.648;2022-10-16T15:57:23;20.00;99.90
29241;DHT22;16268;49.880;8.648;2022-10-16T15:59:49;19.90;99.90
29241;DHT22;16268;49.880;8.648;2022-10-16T16:02:15;19.90;99.90
29241;DHT22;16268;49.880;8.648;2022-10-16T16:04:40;19.90;99.90
29241;DHT22;16268;49.880;8.648;2022-10-16T16:07:06;19.90;99.90
29241;DHT22;16268;49.880;8.648;2022-10-16T16:09:35;19.90;99.90
29241;DHT22;16268;49.880;8.648;2022-10-16T16:12:00;19.70;99.90
29241;DHT22;16268;49.880;8.648;2022-10-16T16:14:27;19.70;99.90
29241;DHT22;16268;49.880;8.648;2022-10-16T16:16:54;19.60;99.90
29241;DHT22;16268;49.880;8.648;2022-10-16T16:19:19;19.60;99.90
29241;DHT22;16268;49.880;8.648;2022-10-16T16:21:46;19.60;99.90
29241;DHT22;16268;49.880;8.648;2022-10-16T16:24:12;19.60;99.90
29241;DHT22;16268;49.880;8.648;2022-10-16T16:26:38;19.50;99.90
29241;DHT22;16268;49.880;8.648;2022-10-16T16:29:05;19.50;99.90
29241;DHT22;16268;49.880;8.648;2022-10-16T16:31:32;19.40;99.90
29241;DHT22;16268;49.880;8.648;2022-10-16T16:33:59;19.30;99.90
29241;DHT22;16268;49.880;8.648;2022-10-16T16:36:25;19.30;99.90
29241;DHT22;16268;49.880;8.648;2022-10-16T16:38:51;19.20;99.90
29241;DHT22;16268;49.880;8.648;2022-10-16T16:41:21;19.20;99.90
29241;DHT22;16268;49.880;8.648;2022-10-16T16:43:48;19.10;99.90
29241;DHT22;16268;49.880;8.648;2022-10-16T16:46:14;19.10;99.90
29241;DHT22;16268;49.880;8.648;2022-10-16T16:48:40;19.00;99.90
29241;DHT22;16268;49.880;8.648;2022-10-16T16:51:07;19.00;99.90
29241;DHT22;16268;49.880;8.648;2022-10-16T16:53:34;19.00;99.90
29241;DHT22;16268;49.880;8.648;2022-10-16T16:56:04;18.90;99.90
29241;DHT22;16268;49.880;8.648;2022-10-16T16:58:30;18.90;99.90
29241;DHT22;16268;49.880;8.648;2022-10-16T17:00:57;18.90;99.90
29241;DHT22;16268;49.880;8.648;2022-10-16T17:03:26;18.90;99.90
29241;DHT22;16268;49.880;8.648;2022-10-16T17:06:00;18.90;99.90
29241;DHT22;16268;49.880;8.648;2022-10-16T17:08:26;18.80;99.90
29241;DHT22;16268;49.880;8.648;2022-10-16T17:10:52;18.80;99.90
29241;DHT22;16268;49.880;8.648;2022-10-16T17:13:21;18.70;99.90
29241;DHT22;16268;49.880;8.648;2022-10-16T17:15:48;18.60;99.90
29241;DHT22;16268;49.880;8.648;2022-10-16T17:18:14;18.60;99.90
29241;DHT22;16268;49.880;8.648;2022-10-16T17:20:40;18.60;99.90
29241;DHT22;16268;49.880;8.648;2022-10-16T17:23:07;18.60;99.90
29241;DHT22;16268;49.880;8.648;2022-10-16T17:25:35;18.60;99.90
29241;DHT22;16268;49.880;8.648;2022-10-16T17:28:01;18.60;99.90
29241;DHT22;16268;49.880;8.648;2022-10-16T17:30:27;18.60;99.90
29241;DHT22;16268;49.880;8.648;2022-10-16T17:32:52;18.60;99.90
29241;DHT22;16268;49.880;8.648;2022-10-16T17:35:18;18.60;99.90
29241;DHT22;16268;49.880;8.648;2022-10-16T17:37:43;18.60;99.90
29241;DHT22;16268;49.880;8.648;2022-10-16T17:40:09;18.60;99.90
29241;DHT22;16268;49.880;8.648;2022-10-16T17:42:35;18.50;99.90
29241;DHT22;16268;49.880;8.648;2022-10-16T17:45:01;18.50;99.90
29241;DHT22;16268;49.880;8.648;2022-10-16T17:47:27;18.50;99.90
29241;DHT22;16268;49.880;8.648;2022-10-16T17:49:53;18.40;99.90
29241;DHT22;16268;49.880;8.648;2022-10-16T17:52:19;18.30;99.90
29241;DHT22;16268;49.880;8.648;2022-10-16T17:54:45;18.20;99.90
29241;DHT22;16268;49.880;8.648;2022-10-16T17:57:11;18.10;99.90
29241;DHT22;16268;49.880;8.648;2022-10-16T17:59:36;18.00;99.90
29241;DHT22;16268;49.880;8.648;2022-10-16T18:02:02;18.00;99.90
29241;DHT22;16268;49.880;8.648;2022-10-16T18:04:28;17.90;99.90
29241;DHT22;16268;49.880;8.648;2022-10-16T18:06:53;17.90;99.90
29241;DHT22;16268;49.880;8.648;2022-10-16T18:09:22;17.80;99.90
29241;DHT22;16268;49.880;8.648;2022-10-16T18:11:48;17.80;99.90
29241;DHT22;16268;49.880;8.648;2022-10-16T18:14:15;17.70;99.90
29241;DHT22;16268;49.880;8.648;2022-10-16T18:16:41;17.70;99.90
29241;DHT22;16268;49.880;8.648;2022-10-16T18:19:09;17.70;99.90
29241;DHT22;16268;49.880;8.648;2022-10-16T18:21:35;17.60;99.90
29241;DHT22;16268;49.880;8.648;2022-10-16T18:24:01;17.60;99.90
29241;DHT22;16268;49.880;8.648;2022-10-16T18:26:27;17.60;99.90
29241;DHT22;16268;49.880;8.648;2022-10-16T18:28:55;17.50;99.90
29241;DHT22;16268;49.880;8.648;2022-10-16T18:31:21;17.50;99.90
29241;DHT22;16268;49.880;8.648;2022-10-16T18:33:47;17.50;99.90
29241;DHT22;16268;49.880;8.648;2022-10-16T18:36:15;17.40;99.90
29241;DHT22;16268;49.880;8.648;2022-10-16T18:38:41;17.40;99.90
29241;DHT22;16268;49.880;8.648;2022-10-16T18:41:07;17.30;99.90
29241;DHT22;16268;49.880;8.648;2022-10-16T18:43:34;17.30;99.90
29241;DHT22;16268;49.880;8.648;2022-10-16T18:46:11;17.30;99.90
29241;DHT22;16268;49.880;8.648;2022-10-16T18:48:37;17.30;99.90
29241;DHT22;16268;49.880;8.648;2022-10-16T18:51:20;17.20;99.90
29241;DHT22;16268;49.880;8.648;2022-10-16T18:53:48;17.20;99.90
29241;DHT22;16268;49.880;8.648;2022-10-16T18:56:15;17.20;99.90